Toledo, OH (43613)

2:40 PM EDT on October 30, 2014 (GMT -0400)
West Toledo | Change Station
CLOSE
Current Station
Personal Weather Station
Location: Toledo, OH
Elevation: 660 ft
Nearby Weather Stations

Elev 660 ft 41.70 °N, 83.61 °W | Updated 25 seconds ago

Mostly Cloudy
Mostly Cloudy
51.7 °F
Feels Like 51.7 °F
N
1.0
Wind Variable Wind from North
Gusts 1.0 mph

Today
High -- | Low -- °F
--% Chance of Precip.
Yesterday
High -- | Low -- °F
Precip. -- in
8:04 AM 6:31 PM
Waxing Crescent, 46% visible
Pressure 30.13 in
Visibility 10.0 miles
Clouds Few 3300 ft
Dew Point 36 °F
Humidity 56%
Rainfall 0.00 in
Snow Depth Not available.
UV 3 out of 12
Pollen .20 out of 12
Air Quality Not available.
Flu Activity Not available.
METAR KTDZ 301753Z AUTO 28004KT 10SM FEW033 10/01 A3012 RMK AO2 SLP202 T01000011 10100 20011 58014 TSNO

More Conditions Fewer Conditions

Pressure 30.13 in
Visibility 10.0 miles
Clouds Few 3300 ft
Dew Point 36 °F
Humidity 56%
Rainfall 0.00 in
Snow Depth Not available.
UV 3 out of 12
Pollen .20 out of 12
Air Quality Not available.
Flu Activity Not available.
METAR KTDZ 301753Z AUTO 28004KT 10SM FEW033 10/01 A3012 RMK AO2 SLP202 T01000011 10100 20011 58014 TSNO

More Conditions Fewer Conditions

10-Day Weather Forecast

Almanac

Astronomy

Oct. 30, 2014 Rise Set
Actual Time
Civil Twilight
Nautical Twilight
Astronomical Twilight
Moon
Length of Visible Light
Length of Day
Tomorrow will be .
, % of the Moon is Illuminated

Today's Extremes

State Highs State Lows

Community

WunderPhotos

Upload Photos

1,766,425 photos uploaded!

WunderBlogs® & News

Nearby

Air Quality

  Air Quality AQ Index Pollutant
Not available.

Snow Depth

Station Depth Elevation

Earthquake Activity

City Distance Mag. Time & Date
Minimum magnitude displayed is 2.5.

Coastal Water Temperatures

Place Temperature

Nearby Weather Stations